Time;durP1;ratioP1;P1;durP2;ratioP2;P2;SDS_P1;SDS_P2;PMS_P1;PMS_P2;Temp;Humidity;BMP_temperature;BMP_pressure;BME280_temperature;BME280_humidity;BME280_pressure;Samples;Min_cycle;Max_cycle;Signal;HPM_P1;HPM_P2
2022/08/18 00:02:12;;;;;;;6.00;5.40;;;20.00;99.90;;;;;;5049254;28;20515;-50
2022/08/18 00:04:39;;;;;;;5.70;5.10;;;19.90;99.90;;;;;;5049536;28;20964;-49
2022/08/18 00:07:08;;;;;;;5.03;4.50;;;19.80;99.90;;;;;;5049638;28;20495;-50
2022/08/18 00:09:37;;;;;;;7.13;5.53;;;19.70;99.90;;;;;;5049009;28;21044;-50
2022/08/18 00:12:07;;;;;;;6.50;4.70;;;19.70;99.90;;;;;;5049567;28;20480;-52
2022/08/18 00:14:36;;;;;;;6.13;5.53;;;19.80;99.90;;;;;;5049516;28;20453;-50
2022/08/18 00:17:03;;;;;;;4.73;4.20;;;19.80;99.90;;;;;;5049411;28;20500;-52
2022/08/18 00:19:30;;;;;;;5.47;4.93;;;20.10;99.90;;;;;;5049180;28;20454;-50
2022/08/18 00:21:58;;;;;;;7.07;4.23;;;20.10;99.90;;;;;;5051565;28;20969;-52
2022/08/18 00:24:25;;;;;;;5.27;4.00;;;19.60;99.90;;;;;;5053501;28;20510;-50
2022/08/18 00:26:53;;;;;;;11.23;4.40;;;19.70;99.90;;;;;;5053179;28;20499;-49
2022/08/18 00:29:20;;;;;;;5.20;4.70;;;19.60;99.90;;;;;;5052810;28;21042;-50
2022/08/18 00:31:49;;;;;;;6.17;4.90;;;19.50;99.90;;;;;;5052783;28;20465;-49
2022/08/18 00:34:16;;;;;;;6.27;4.80;;;19.40;99.90;;;;;;5053219;28;20488;-49
2022/08/18 00:36:43;;;;;;;7.03;4.57;;;19.20;99.90;;;;;;5053008;28;20433;-50
2022/08/18 00:39:10;;;;;;;6.20;4.60;;;19.00;99.90;;;;;;5052881;28;20532;-49
2022/08/18 00:41:37;;;;;;;4.80;4.10;;;19.20;99.90;;;;;;5052939;28;20542;-50
2022/08/18 00:44:04;;;;;;;4.43;3.90;;;19.30;99.90;;;;;;5052973;28;20542;-49
2022/08/18 00:46:34;;;;;;;6.10;5.23;;;19.40;99.90;;;;;;5052693;28;20432;-49
2022/08/18 00:49:03;;;;;;;5.47;4.47;;;19.40;99.90;;;;;;5052565;28;20473;-49
2022/08/18 00:51:37;;;;;;;5.80;4.50;;;19.60;99.90;;;;;;5052894;28;20514;-49
2022/08/18 00:54:10;;;;;;;4.77;4.13;;;19.50;99.90;;;;;;5052870;28;20463;-49
2022/08/18 00:56:43;;;;;;;7.50;4.00;;;19.20;99.90;;;;;;5052785;28;20453;-51
2022/08/18 00:59:15;;;;;;;6.33;5.03;;;19.30;99.90;;;;;;5052403;28;20525;-50
2022/08/18 01:01:44;;;;;;;11.17;4.40;;;19.60;99.90;;;;;;5052836;28;20515;-49
2022/08/18 01:04:18;;;;;;;7.50;3.93;;;19.70;99.90;;;;;;5052573;28;20548;-50
2022/08/18 01:06:51;;;;;;;5.13;4.07;;;19.70;99.90;;;;;;5052463;28;20487;-51
2022/08/18 01:09:19;;;;;;;6.17;4.40;;;19.70;99.90;;;;;;5052065;28;21008;-50
2022/08/18 01:11:46;;;;;;;4.90;4.10;;;19.60;99.90;;;;;;5052245;28;20481;-49
2022/08/18 01:14:17;;;;;;;5.23;3.87;;;18.70;99.90;;;;;;5052510;28;20445;-49
2022/08/18 01:22:21;;;;;;;6.97;4.53;;;19.10;99.90;;;;;;5052148;28;20439;-49
2022/08/18 01:27:36;;;;;;;4.90;3.83;;;19.00;99.90;;;;;;5052137;28;20852;-50
2022/08/18 01:30:09;;;;;;;4.93;3.83;;;19.00;99.90;;;;;;5051686;28;20497;-50
2022/08/18 01:32:37;;;;;;;5.33;3.70;;;19.10;99.90;;;;;;5050740;28;20475;-50
2022/08/18 01:35:07;;;;;;;7.17;4.60;;;19.10;99.90;;;;;;5051898;28;20434;-52
2022/08/18 01:37:36;;;;;;;6.10;5.37;;;18.80;99.90;;;;;;5052116;28;20449;-49
2022/08/18 01:40:07;;;;;;;9.40;5.43;;;18.90;99.90;;;;;;5051558;28;20491;-50
2022/08/18 01:42:34;;;;;;;4.80;3.83;;;18.90;99.90;;;;;;5051927;28;20505;-49
2022/08/18 01:45:03;;;;;;;9.30;4.47;;;18.80;99.90;;;;;;5051842;28;20843;-49
2022/08/18 01:47:33;;;;;;;7.00;4.10;;;18.60;99.90;;;;;;5051711;28;20533;-49
2022/08/18 01:50:00;;;;;;;4.80;4.20;;;18.20;99.90;;;;;;5051438;28;20472;-49
2022/08/18 01:52:28;;;;;;;4.83;4.03;;;17.90;99.90;;;;;;5051696;28;20469;-49
2022/08/18 01:54:56;;;;;;;5.40;5.00;;;18.30;99.90;;;;;;5051474;28;20923;-49
2022/08/18 01:57:25;;;;;;;6.30;5.37;;;18.00;99.90;;;;;;5051548;28;20450;-49
2022/08/18 01:59:52;;;;;;;5.07;4.57;;;17.90;99.90;;;;;;5051438;28;20906;-49
2022/08/18 02:02:24;;;;;;;6.70;5.80;;;17.80;99.90;;;;;;5051079;28;20462;-51
2022/08/18 02:04:54;;;;;;;6.73;5.77;;;18.10;99.90;;;;;;5051565;28;20453;-51
2022/08/18 02:07:21;;;;;;;8.07;4.90;;;18.50;99.90;;;;;;5051492;28;20477;-49
2022/08/18 02:09:48;;;;;;;5.23;4.73;;;18.70;99.90;;;;;;5050683;28;20477;-51
2022/08/18 02:12:15;;;;;;;6.53;5.50;;;18.50;99.90;;;;;;5051154;28;20969;-50
2022/08/18 02:14:44;;;;;;;5.73;5.10;;;18.20;99.90;;;;;;5051251;28;20548;-49
2022/08/18 02:17:13;;;;;;;5.40;4.90;;;18.40;99.90;;;;;;5051330;28;20511;-49
2022/08/18 02:19:43;;;;;;;6.00;5.00;;;17.90;99.90;;;;;;5051040;28;20441;-49
2022/08/18 02:22:12;;;;;;;6.87;5.67;;;18.10;99.90;;;;;;5051156;28;20665;-49
2022/08/18 02:24:40;;;;;;;5.00;4.50;;;18.30;99.90;;;;;;5051182;28;20429;-49
2022/08/18 02:27:08;;;;;;;5.37;4.80;;;18.30;99.90;;;;;;5050638;28;20437;-49
2022/08/18 02:29:36;;;;;;;8.37;5.40;;;18.60;99.90;;;;;;5050541;28;20497;-51
2022/08/18 02:32:05;;;;;;;6.13;5.10;;;18.50;99.90;;;;;;5050766;28;20489;-49
2022/08/18 02:34:32;;;;;;;5.33;4.83;;;18.20;99.90;;;;;;5050767;28;20434;-49
2022/08/18 02:37:00;;;;;;;6.90;5.27;;;18.60;99.90;;;;;;5051002;28;20946;-49
2022/08/18 02:39:27;;;;;;;9.03;6.30;;;18.30;99.90;;;;;;5050741;28;20445;-50
2022/08/18 02:41:54;;;;;;;6.20;4.80;;;18.30;99.90;;;;;;5050700;28;20477;-52
2022/08/18 02:44:21;;;;;;;6.17;5.23;;;18.10;99.90;;;;;;5050391;28;20867;-49
2022/08/18 02:46:52;;;;;;;5.53;4.97;;;18.20;99.90;;;;;;5050736;28;20495;-49
2022/08/18 02:49:21;;;;;;;5.47;4.97;;;18.20;99.90;;;;;;5050408;28;20560;-49
2022/08/18 02:51:49;;;;;;;6.37;5.70;;;18.30;99.90;;;;;;5050611;28;20664;-50
2022/08/18 02:54:18;;;;;;;6.77;5.73;;;18.50;99.90;;;;;;5050430;28;20930;-49
2022/08/18 02:56:46;;;;;;;5.40;4.70;;;18.10;99.90;;;;;;5050463;28;20535;-49
2022/08/18 02:59:16;;;;;;;7.80;5.93;;;18.50;99.90;;;;;;5050083;28;20449;-50
2022/08/18 03:01:45;;;;;;;6.93;5.33;;;18.40;99.90;;;;;;5050280;28;20475;-50
2022/08/18 03:04:15;;;;;;;5.33;4.57;;;18.30;99.90;;;;;;5050442;28;20515;-49
2022/08/18 03:06:45;;;;;;;4.90;4.40;;;18.50;99.90;;;;;;5050254;28;20442;-50
2022/08/18 03:09:13;;;;;;;5.17;4.50;;;18.40;99.90;;;;;;5050560;28;20449;-49
2022/08/18 03:11:40;;;;;;;6.10;5.50;;;18.30;99.90;;;;;;5050400;28;20465;-51
2022/08/18 03:14:07;;;;;;;7.37;5.10;;;18.00;99.90;;;;;;5050003;28;20437;-49
2022/08/18 03:16:35;;;;;;;6.57;5.43;;;17.80;99.90;;;;;;5050253;28;20441;-50
2022/08/18 03:19:02;;;;;;;6.80;5.30;;;17.70;99.90;;;;;;5049841;28;21132;-50
2022/08/18 03:21:33;;;;;;;7.53;4.70;;;17.80;99.90;;;;;;5050083;28;20836;-49
2022/08/18 03:24:02;;;;;;;4.97;4.47;;;17.70;99.90;;;;;;5050053;28;20453;-51
2022/08/18 03:26:30;;;;;;;7.20;5.47;;;17.90;99.90;;;;;;5049645;28;20515;-50
2022/08/18 03:28:59;;;;;;;9.00;5.00;;;17.90;99.90;;;;;;5049648;28;20433;-49
2022/08/18 03:31:30;;;;;;;5.33;4.53;;;18.00;99.90;;;;;;5074966;22;20527;-52
2022/08/18 03:33:58;;;;;;;5.50;4.90;;;18.00;99.90;;;;;;5050011;28;20441;-51
2022/08/18 03:36:27;;;;;;;6.80;4.00;;;17.90;99.90;;;;;;5049792;28;20495;-51
2022/08/18 03:38:55;;;;;;;6.27;4.40;;;17.90;99.90;;;;;;5049690;28;20502;-51
2022/08/18 03:41:27;;;;;;;4.97;4.47;;;17.70;99.90;;;;;;5049813;28;20453;-51
2022/08/18 03:43:54;;;;;;;5.90;5.10;;;18.00;99.90;;;;;;5049642;28;20433;-51
2022/08/18 03:46:23;;;;;;;6.00;5.40;;;18.20;99.90;;;;;;5049692;28;20434;-51
2022/08/18 03:48:52;;;;;;;7.60;5.33;;;18.00;99.90;;;;;;5049802;28;20443;-53
2022/08/18 03:51:24;;;;;;;5.07;4.67;;;17.90;99.90;;;;;;5049425;28;20496;-51
2022/08/18 03:53:53;;;;;;;8.20;5.53;;;17.70;99.90;;;;;;5050002;28;20429;-51
2022/08/18 03:56:26;;;;;;;7.30;5.30;;;17.80;99.90;;;;;;5050780;28;20796;-51
2022/08/18 03:58:54;;;;;;;6.33;4.17;;;17.80;99.90;;;;;;5053592;28;20434;-51
2022/08/18 04:01:24;;;;;;;6.43;4.53;;;17.70;99.90;;;;;;5053429;28;20483;-51
2022/08/18 04:03:55;;;;;;;5.67;5.17;;;17.70;99.90;;;;;;5053707;28;20434;-51
2022/08/18 04:06:24;;;;;;;8.27;4.80;;;18.00;99.90;;;;;;5053852;28;20456;-51
2022/08/18 04:08:52;;;;;;;5.90;5.03;;;17.90;99.90;;;;;;5053293;28;20487;-51
2022/08/18 04:11:19;;;;;;;8.30;5.30;;;17.90;99.90;;;;;;5053081;28;20468;-51
2022/08/18 04:13:48;;;;;;;5.90;5.00;;;17.90;99.90;;;;;;5053643;28;20449;-51
2022/08/18 04:16:15;;;;;;;5.30;4.80;;;17.50;99.90;;;;;;5053524;28;20437;-51
2022/08/18 04:18:42;;;;;;;5.70;4.50;;;17.40;99.90;;;;;;5053341;28;20530;-52
2022/08/18 04:21:12;;;;;;;4.90;4.27;;;17.50;99.90;;;;;;5053402;28;20441;-52
2022/08/18 04:23:40;;;;;;;6.77;4.50;;;17.60;99.90;;;;;;5053639;28;20442;-51
2022/08/18 04:26:08;;;;;;;4.73;4.33;;;17.90;99.90;;;;;;5052701;28;20457;-52
2022/08/18 04:28:36;;;;;;;5.23;4.10;;;18.20;99.90;;;;;;5053206;28;20429;-52
2022/08/18 04:31:08;;;;;;;5.70;4.93;;;18.00;99.90;;;;;;5052936;28;20469;-52
2022/08/18 04:33:36;;;;;;;6.33;5.13;;;17.60;99.90;;;;;;5053111;28;20484;-51
2022/08/18 04:36:09;;;;;;;5.23;4.43;;;17.30;99.90;;;;;;5052971;28;20864;-51
2022/08/18 04:38:37;;;;;;;6.80;4.33;;;17.30;99.90;;;;;;5053445;28;20476;-51
2022/08/18 04:41:04;;;;;;;7.23;4.90;;;17.40;99.90;;;;;;5052923;28;20469;-51
2022/08/18 04:43:31;;;;;;;6.73;5.70;;;17.60;99.90;;;;;;5052942;28;20489;-51
2022/08/18 04:46:00;;;;;;;5.97;4.23;;;17.70;99.90;;;;;;5053003;28;20499;-51
2022/08/18 04:48:32;;;;;;;6.77;5.20;;;17.50;99.90;;;;;;5052837;28;20449;-51
2022/08/18 04:51:05;;;;;;;7.27;5.67;;;17.70;99.90;;;;;;5052884;28;20833;-50
2022/08/18 04:53:46;;;;;;;6.23;5.37;;;18.00;99.90;;;;;;5052819;28;20522;-51
2022/08/18 04:56:25;;;;;;;7.70;4.87;;;18.30;99.90;;;;;;5053334;28;20530;-51
2022/08/18 04:58:54;;;;;;;8.70;5.10;;;18.40;99.90;;;;;;5052784;28;20445;-51
2022/08/18 05:01:29;;;;;;;6.70;5.03;;;18.20;99.90;;;;;;5052456;28;20468;-51
2022/08/18 05:03:58;;;;;;;7.87;6.57;;;18.30;99.90;;;;;;5053172;28;20448;-51
2022/08/18 05:06:28;;;;;;;7.67;5.20;;;18.10;99.90;;;;;;5052636;28;20532;-51
2022/08/18 05:08:56;;;;;;;6.97;6.27;;;18.10;99.90;;;;;;5052261;28;20449;-52
2022/08/18 05:11:24;;;;;;;9.20;5.97;;;18.20;99.90;;;;;;5051918;28;20519;-51
2022/08/18 05:13:54;;;;;;;8.17;5.30;;;18.20;99.90;;;;;;5052447;28;20453;-51
2022/08/18 05:16:21;;;;;;;7.50;6.30;;;18.30;99.90;;;;;;5052443;28;20449;-51
2022/08/18 05:18:48;;;;;;;7.63;5.87;;;18.30;99.90;;;;;;5052090;28;20503;-51
2022/08/18 05:21:16;;;;;;;6.17;5.57;;;18.00;99.90;;;;;;5052298;28;20499;-51
2022/08/18 05:23:45;;;;;;;6.13;5.40;;;18.00;99.90;;;;;;5052453;28;20499;-51
2022/08/18 05:26:13;;;;;;;6.33;5.73;;;17.80;99.90;;;;;;5052017;28;20453;-51
2022/08/18 05:28:40;;;;;;;8.77;5.30;;;18.00;99.90;;;;;;5052213;28;20528;-50
2022/08/18 05:31:10;;;;;;;7.17;5.30;;;18.20;99.90;;;;;;5051912;28;20473;-51
2022/08/18 05:33:38;;;;;;;6.83;4.97;;;18.50;99.90;;;;;;5051862;28;20468;-51
2022/08/18 05:36:12;;;;;;;5.73;5.13;;;18.50;99.90;;;;;;5051882;28;20444;-51
2022/08/18 05:38:53;;;;;;;7.30;5.10;;;18.40;99.90;;;;;;5052024;28;20792;-52
2022/08/18 05:41:24;;;;;;;6.73;5.20;;;18.40;99.90;;;;;;5051802;28;20467;-52
2022/08/18 05:43:52;;;;;;;7.07;4.83;;;18.20;99.90;;;;;;5051904;28;20457;-53
2022/08/18 05:46:22;;;;;;;6.13;5.50;;;18.20;99.90;;;;;;5051946;28;20446;-50
2022/08/18 05:48:50;;;;;;;7.50;5.70;;;18.50;99.90;;;;;;5051607;28;21007;-52
2022/08/18 05:51:21;;;;;;;12.60;6.03;;;18.40;99.90;;;;;;5051448;28;20477;-51
2022/08/18 05:56:46;;;;;;;8.73;6.20;;;18.60;99.90;;;;;;5051649;28;20429;-51
2022/08/18 05:59:15;;;;;;;8.00;6.90;;;18.50;99.90;;;;;;5051426;28;20457;-51
2022/08/18 06:01:45;;;;;;;7.90;6.13;;;18.20;99.90;;;;;;5050837;28;20504;-53
2022/08/18 06:04:26;;;;;;;6.30;5.70;;;18.30;99.90;;;;;;5051967;28;20514;-51
2022/08/18 06:06:56;;;;;;;7.63;6.70;;;18.20;99.90;;;;;;5051389;28;20444;-51
2022/08/18 06:09:31;;;;;;;9.23;5.93;;;17.30;99.90;;;;;;5050417;28;20434;-51
2022/08/18 06:12:07;;;;;;;6.50;5.50;;;17.70;99.90;;;;;;5049532;28;20857;-53
2022/08/18 06:14:38;;;;;;;15.40;6.60;;;18.10;99.90;;;;;;5050830;28;20507;-53
2022/08/18 06:17:14;;;;;;;17.30;6.47;;;18.50;99.90;;;;;;5050470;28;20619;-51
2022/08/18 06:19:51;;;;;;;8.60;5.40;;;18.70;99.90;;;;;;5049458;28;20440;-52
2022/08/18 06:22:26;;;;;;;10.33;5.40;;;18.80;99.90;;;;;;5050418;28;20484;-51
2022/08/18 06:25:02;;;;;;;6.30;5.70;;;18.90;99.90;;;;;;5051037;28;20449;-51
2022/08/18 06:27:39;;;;;;;7.23;5.20;;;18.60;99.90;;;;;;5050588;28;20887;-52
2022/08/18 06:30:12;;;;;;;6.07;5.47;;;18.70;99.90;;;;;;5050667;28;20520;-51
2022/08/18 06:32:55;;;;;;;6.30;5.70;;;18.60;99.90;;;;;;5050827;28;20512;-51
2022/08/18 06:35:33;;;;;;;6.13;5.53;;;18.50;99.90;;;;;;5050993;28;20445;-53
2022/08/18 06:41:02;;;;;;;6.50;5.83;;;18.10;99.90;;;;;;5041414;28;20432;-51
2022/08/18 06:43:34;;;;;;;11.20;6.50;;;18.20;99.90;;;;;;5050641;28;20548;-51
2022/08/18 06:46:03;;;;;;;6.00;5.00;;;18.50;99.90;;;;;;5050702;28;20512;-51
2022/08/18 06:48:37;;;;;;;6.73;5.90;;;18.70;99.90;;;;;;5050515;28;20446;-51
2022/08/18 06:51:07;;;;;;;8.50;6.57;;;18.80;99.90;;;;;;5050586;28;20473;-51
2022/08/18 06:53:56;;;;;;;6.00;5.50;;;18.70;99.90;;;;;;5050504;28;20457;-51
2022/08/18 06:56:32;;;;;;;7.13;5.83;;;18.50;99.90;;;;;;5050574;28;20449;-53
2022/08/18 06:59:16;;;;;;;10.03;6.40;;;18.40;99.90;;;;;;5050102;28;20452;-51
2022/08/18 07:01:44;;;;;;;9.37;5.30;;;18.60;99.90;;;;;;5050277;28;20465;-52
2022/08/18 07:04:32;;;;;;;7.40;6.10;;;18.60;99.90;;;;;;5050353;28;20453;-51
2022/08/18 07:07:11;;;;;;;8.90;6.70;;;18.80;99.90;;;;;;5050531;28;20426;-51
2022/08/18 07:09:38;;;;;;;7.50;6.40;;;18.90;99.90;;;;;;5050038;28;20441;-52
2022/08/18 07:12:08;;;;;;;7.27;6.57;;;18.50;99.90;;;;;;5049885;28;20848;-51
2022/08/18 07:14:43;;;;;;;7.60;6.33;;;18.10;99.90;;;;;;5050056;28;20438;-51
2022/08/18 07:17:13;;;;;;;7.97;6.50;;;18.20;99.90;;;;;;5050077;28;20459;-51
2022/08/18 07:19:41;;;;;;;6.50;5.90;;;18.50;99.90;;;;;;5049881;28;20495;-51
2022/08/18 07:22:10;;;;;;;8.40;5.70;;;18.70;99.90;;;;;;5050149;28;20496;-52
2022/08/18 07:24:41;;;;;;;9.30;6.87;;;19.00;99.90;;;;;;5049936;28;20445;-51
2022/08/18 07:27:12;;;;;;;6.20;5.60;;;19.20;99.90;;;;;;5050241;28;20449;-52
2022/08/18 07:29:41;;;;;;;10.17;5.77;;;19.20;99.90;;;;;;5049758;28;20446;-52
2022/08/18 07:32:14;;;;;;;11.27;7.80;;;19.30;99.90;;;;;;5048710;28;20539;-51
2022/08/18 07:34:46;;;;;;;7.20;6.50;;;19.30;99.90;;;;;;5049770;28;20470;-51
2022/08/18 07:37:18;;;;;;;6.97;6.27;;;19.20;99.90;;;;;;5049928;28;20445;-51
2022/08/18 07:39:51;;;;;;;7.60;6.80;;;19.10;99.90;;;;;;5049737;28;20969;-51
2022/08/18 07:42:28;;;;;;;7.57;6.27;;;19.20;99.90;;;;;;5050050;28;20485;-49
2022/08/18 07:45:01;;;;;;;7.67;6.83;;;19.30;99.90;;;;;;5049954;28;20522;-51
2022/08/18 07:47:36;;;;;;;10.13;6.77;;;19.30;99.90;;;;;;5049726;28;20969;-51
2022/08/18 07:50:04;;;;;;;7.80;7.00;;;19.30;99.90;;;;;;5049468;28;20524;-51
2022/08/18 07:52:36;;;;;;;7.87;6.50;;;19.40;99.90;;;;;;5049241;28;20473;-52
2022/08/18 07:55:09;;;;;;;7.33;6.63;;;19.50;99.90;;;;;;5049906;28;20449;-51
2022/08/18 07:57:44;;;;;;;6.80;6.20;;;19.60;99.90;;;;;;5049688;28;20449;-51
2022/08/18 08:00:19;;;;;;;8.20;6.47;;;19.60;99.90;;;;;;5049419;28;20452;-52
2022/08/18 08:02:54;;;;;;;9.30;6.70;;;19.70;99.90;;;;;;5049298;28;20468;-51
2022/08/18 08:05:38;;;;;;;7.53;6.83;;;19.90;99.90;;;;;;5049566;28;21060;-51
2022/08/18 08:08:13;;;;;;;14.30;7.50;;;20.00;99.90;;;;;;5049565;28;20938;-52
2022/08/18 08:10:50;;;;;;;8.27;6.33;;;20.10;99.90;;;;;;5049354;28;20949;-51
2022/08/18 08:13:23;;;;;;;7.17;6.43;;;20.20;99.90;;;;;;5049420;28;20465;-51
2022/08/18 08:16:01;;;;;;;9.03;8.17;;;20.20;99.90;;;;;;5049409;28;20430;-51
2022/08/18 08:18:41;;;;;;;7.03;6.43;;;20.20;99.90;;;;;;5049980;28;20445;-52
2022/08/18 08:21:11;;;;;;;7.20;6.17;;;20.30;99.90;;;;;;5049128;28;21041;-51
2022/08/18 08:23:47;;;;;;;8.50;6.07;;;20.30;99.90;;;;;;5049593;28;20479;-52
2022/08/18 08:26:26;;;;;;;9.20;5.80;;;20.40;99.90;;;;;;5049190;28;20433;-51
2022/08/18 08:29:05;;;;;;;7.93;6.87;;;20.40;99.90;;;;;;5049068;28;20429;-51
2022/08/18 08:31:43;;;;;;;7.37;5.87;;;20.30;99.90;;;;;;5049038;28;20531;-51
2022/08/18 08:34:16;;;;;;;7.43;6.73;;;20.30;99.90;;;;;;5049256;28;20445;-51
2022/08/18 08:36:46;;;;;;;7.63;6.40;;;20.30;99.90;;;;;;5049303;28;20477;-52
2022/08/18 08:39:20;;;;;;;6.97;5.80;;;20.30;99.90;;;;;;5049129;28;20445;-52
2022/08/18 08:41:53;;;;;;;8.40;6.70;;;20.30;99.90;;;;;;5049547;28;20470;-51
2022/08/18 08:44:27;;;;;;;9.23;7.00;;;20.40;99.90;;;;;;5052851;28;20425;-51
2022/08/18 08:47:00;;;;;;;7.40;6.70;;;20.40;99.90;;;;;;5053051;28;20492;-51
2022/08/18 08:49:32;;;;;;;7.00;6.30;;;20.40;99.90;;;;;;5052666;28;20445;-51
2022/08/18 08:52:04;;;;;;;7.17;6.47;;;20.60;99.90;;;;;;5052611;28;20484;-52
2022/08/18 08:54:43;;;;;;;7.33;6.40;;;20.70;99.90;;;;;;5053313;28;20495;-51
2022/08/18 08:57:13;;;;;;;10.80;6.83;;;20.70;99.90;;;;;;5052980;28;20510;-52
2022/08/18 08:59:45;;;;;;;8.87;7.40;;;20.60;99.90;;;;;;5052471;28;20448;-51
2022/08/18 09:02:40;;;;;;;9.30;6.47;;;20.40;99.90;;;;;;5052402;28;20457;-51
2022/08/18 09:05:14;;;;;;;7.40;6.70;;;20.50;99.90;;;;;;5052608;28;20452;-51
2022/08/18 09:08:09;;;;;;;12.03;7.83;;;20.80;99.90;;;;;;5052499;28;20483;-52
2022/08/18 09:10:51;;;;;;;9.10;8.17;;;21.10;99.90;;;;;;5052535;28;20926;-52
2022/08/18 09:13:43;;;;;;;8.80;7.40;;;21.10;99.90;;;;;;5052355;28;20464;-52
2022/08/18 09:16:22;;;;;;;7.60;6.87;;;21.30;99.90;;;;;;5052735;28;20449;-52
2022/08/18 09:19:06;;;;;;;13.03;7.50;;;21.40;99.90;;;;;;5052549;28;20856;-51
2022/08/18 09:21:43;;;;;;;25.80;9.50;;;21.40;99.90;;;;;;5051938;28;20469;-51
2022/08/18 09:24:24;;;;;;;14.27;8.10;;;21.40;99.90;;;;;;5052469;28;20511;-52
2022/08/18 09:26:53;;;;;;;10.07;7.70;;;21.40;99.90;;;;;;5051939;28;20441;-52
2022/08/18 09:29:26;;;;;;;8.53;7.27;;;21.50;99.90;;;;;;5052373;28;20430;-52
2022/08/18 09:32:26;;;;;;;8.50;7.60;;;21.60;99.90;;;;;;5070537;22;20477;-50
2022/08/18 09:35:07;;;;;;;8.27;7.47;;;21.90;99.90;;;;;;5041484;28;20453;-50
2022/08/18 09:37:46;;;;;;;13.20;7.70;;;21.90;99.90;;;;;;5052036;28;20515;-49
2022/08/18 09:43:13;;;;;;;17.20;9.00;;;21.80;99.90;;;;;;5012709;28;20475;-49
2022/08/18 09:45:54;;;;;;;9.03;7.60;;;21.80;99.90;;;;;;5052268;28;20472;-50
2022/08/18 09:48:40;;;;;;;11.83;7.70;;;21.70;99.90;;;;;;5051837;28;20449;-50
2022/08/18 09:51:31;;;;;;;10.20;7.83;;;21.70;99.90;;;;;;5051635;28;20484;-51
2022/08/18 09:54:12;;;;;;;7.83;7.20;;;21.70;99.90;;;;;;5048407;28;20469;-49
2022/08/18 09:57:16;;;;;;;10.20;8.17;;;21.60;99.90;;;;;;5051277;28;20425;-49
2022/08/18 10:00:19;;;;;;;9.50;7.00;;;21.60;99.90;;;;;;5050545;28;20437;-49
2022/08/18 10:03:18;;;;;;;8.90;8.00;;;21.70;99.90;;;;;;5050926;28;20985;-49
2022/08/18 10:06:14;;;;;;;8.27;7.57;;;21.70;99.90;;;;;;5051555;28;20491;-50
2022/08/18 10:09:08;;;;;;;9.63;8.60;;;21.40;99.90;;;;;;5050940;28;20532;-49
2022/08/18 10:11:57;;;;;;;12.13;8.07;;;21.40;99.90;;;;;;5051152;28;20550;-49
2022/08/18 10:15:01;;;;;;;8.07;7.30;;;21.50;99.90;;;;;;5051182;28;20449;-49
2022/08/18 10:17:43;;;;;;;10.37;8.30;;;21.60;99.90;;;;;;5049347;28;20989;-51
2022/08/18 10:20:27;;;;;;;9.83;7.30;;;21.60;99.90;;;;;;5051086;28;20477;-50
2022/08/18 10:22:56;;;;;;;10.60;7.30;;;21.80;99.90;;;;;;5050874;28;20530;-50
2022/08/18 10:25:38;;;;;;;7.60;4.57;;;21.90;99.90;;;;;;5050745;28;21049;-51
2022/08/18 10:28:06;;;;;;;3.73;2.13;;;22.30;99.90;;;;;;5050909;28;20433;-50
2022/08/18 10:31:05;;;;;;;3.57;1.37;;;22.60;99.90;;;;;;5050621;28;20449;-51
2022/08/18 10:34:01;;;;;;;4.20;1.60;;;22.80;99.90;;;;;;5050528;28;20516;-50
2022/08/18 10:36:46;;;;;;;2.90;1.00;;;22.90;99.90;;;;;;5050865;28;20460;-49
2022/08/18 10:39:15;;;;;;;3.07;1.27;;;23.50;99.90;;;;;;5050506;28;20449;-49
2022/08/18 10:42:14;;;;;;;6.20;2.07;;;23.30;99.90;;;;;;5050301;28;20437;-48
2022/08/18 10:44:45;;;;;;;5.33;4.20;;;23.20;99.90;;;;;;5041711;28;20447;-49
2022/08/18 10:47:22;;;;;;;8.10;7.30;;;23.10;99.90;;;;;;5049691;28;20842;-49
2022/08/18 10:49:50;;;;;;;10.07;6.17;;;22.60;99.90;;;;;;5048830;28;20517;-49
2022/08/18 10:52:51;;;;;;;22.37;7.07;;;22.50;99.90;;;;;;5049044;28;20481;-49
2022/08/18 10:55:38;;;;;;;9.50;2.90;;;22.50;99.90;;;;;;5049287;28;20433;-50
2022/08/18 10:58:42;;;;;;;11.00;2.03;;;22.80;99.90;;;;;;5049329;28;20437;-50
2022/08/18 11:01:20;;;;;;;5.20;1.47;;;23.00;99.90;;;;;;5026606;28;20488;-50
2022/08/18 11:04:07;;;;;;;8.43;2.00;;;23.10;99.90;;;;;;5049034;28;20808;-49
2022/08/18 11:06:41;;;;;;;5.03;1.93;;;23.10;99.90;;;;;;5050052;28;20456;-49
2022/08/18 11:09:10;;;;;;;3.70;1.10;;;23.30;99.90;;;;;;5050244;28;21125;-49
2022/08/18 11:11:42;;;;;;;2.07;1.30;;;23.40;99.90;;;;;;5050035;28;20433;-49
2022/08/18 11:14:25;;;;;;;2.90;2.10;;;23.50;99.90;;;;;;5050014;28;20871;-51
2022/08/18 11:17:01;;;;;;;7.03;4.70;;;23.50;99.90;;;;;;5049909;28;20432;-50
2022/08/18 11:19:29;;;;;;;7.50;2.83;;;23.50;99.90;;;;;;5049750;28;20877;-50
2022/08/18 11:21:56;;;;;;;6.13;4.70;;;23.40;99.90;;;;;;5049635;28;20437;-50
2022/08/18 11:24:26;;;;;;;9.90;4.03;;;23.50;99.90;;;;;;5050237;28;20695;-51
2022/08/18 11:26:55;;;;;;;2.20;1.90;;;23.60;99.90;;;;;;5049458;28;20450;-50
2022/08/18 11:29:32;;;;;;;2.50;1.50;;;23.60;99.90;;;;;;5049636;28;20950;-50
2022/08/18 11:32:06;;;;;;;2.10;1.17;;;23.50;99.90;;;;;;5049156;28;20460;-49
2022/08/18 11:34:38;;;;;;;6.27;2.10;;;23.60;99.90;;;;;;5049866;28;20941;-50
2022/08/18 11:37:08;;;;;;;8.80;2.50;;;23.70;99.90;;;;;;5049499;28;20825;-49
2022/08/18 11:39:43;;;;;;;2.67;1.30;;;23.90;99.90;;;;;;5049333;28;20944;-50
2022/08/18 11:42:10;;;;;;;8.93;2.10;;;23.80;99.90;;;;;;5049248;28;20460;-50
2022/08/18 11:44:39;;;;;;;5.10;1.60;;;23.80;99.90;;;;;;5049706;28;20515;-49
2022/08/18 11:47:14;;;;;;;6.27;2.27;;;23.90;99.90;;;;;;5049582;28;20449;-49
2022/08/18 11:49:51;;;;;;;5.90;1.60;;;23.80;99.90;;;;;;5049297;28;20498;-50
2022/08/18 11:52:23;;;;;;;6.30;1.27;;;23.80;99.90;;;;;;5049256;28;20477;-50
2022/08/18 11:54:51;;;;;;;3.00;1.77;;;23.70;99.90;;;;;;5049558;28;20510;-49
2022/08/18 11:57:38;;;;;;;6.90;1.97;;;23.60;99.90;;;;;;5049469;28;20510;-51
2022/08/18 12:00:38;;;;;;;2.70;1.20;;;23.80;99.90;;;;;;5048973;28;20496;-49
2022/08/18 12:03:14;;;;;;;6.10;3.33;;;23.70;99.90;;;;;;5045280;28;20454;-49
2022/08/18 12:05:48;;;;;;;6.80;4.60;;;23.60;99.90;;;;;;5049563;28;20452;-50
2022/08/18 12:08:22;;;;;;;8.00;6.20;;;23.60;99.90;;;;;;5049375;28;20483;-49
2022/08/18 12:10:49;;;;;;;10.63;6.30;;;23.50;99.90;;;;;;5049068;28;20459;-52
2022/08/18 12:13:25;;;;;;;11.57;7.30;;;23.10;99.90;;;;;;5049118;28;20882;-49
2022/08/18 12:16:08;;;;;;;14.07;8.60;;;22.70;99.90;;;;;;5049187;28;20461;-49
2022/08/18 12:18:36;;;;;;;9.90;7.03;;;22.80;99.90;;;;;;5052376;28;20429;-49
2022/08/18 12:21:04;;;;;;;8.87;6.30;;;22.70;99.90;;;;;;5053513;28;20449;-49
2022/08/18 12:23:32;;;;;;;6.70;4.47;;;22.70;99.90;;;;;;5053302;28;20484;-50
2022/08/18 12:25:59;;;;;;;4.20;2.50;;;22.60;99.90;;;;;;5052820;28;20445;-50
2022/08/18 12:28:26;;;;;;;6.30;2.63;;;22.40;99.90;;;;;;5053169;28;20433;-51
2022/08/18 12:30:53;;;;;;;9.67;5.10;;;22.40;99.90;;;;;;5053444;28;20482;-49
2022/08/18 12:33:20;;;;;;;6.03;4.40;;;22.40;99.90;;;;;;5052758;28;20477;-52
2022/08/18 12:35:49;;;;;;;11.77;2.67;;;22.40;99.90;;;;;;5053436;28;20899;-49
2022/08/18 12:38:16;;;;;;;7.73;2.23;;;22.30;99.90;;;;;;5052972;28;20456;-49
2022/08/18 12:40:44;;;;;;;4.57;1.80;;;22.20;99.90;;;;;;5052723;28;20429;-49
2022/08/18 12:43:11;;;;;;;7.10;2.03;;;22.10;99.90;;;;;;5053013;28;20609;-50
2022/08/18 12:45:38;;;;;;;42.23;8.00;;;22.00;99.90;;;;;;5052709;28;20442;-49
2022/08/18 12:48:06;;;;;;;5.33;2.83;;;21.80;99.90;;;;;;5052792;28;20498;-50
2022/08/18 12:50:34;;;;;;;6.00;2.80;;;21.60;99.90;;;;;;5052468;28;20433;-49
2022/08/18 12:53:02;;;;;;;5.17;2.50;;;21.50;99.90;;;;;;5052583;28;20566;-49
2022/08/18 12:55:34;;;;;;;5.90;1.83;;;21.60;99.90;;;;;;5052766;28;20461;-49
2022/08/18 12:58:02;;;;;;;8.07;2.27;;;21.40;99.90;;;;;;5052401;28;20437;-49
2022/08/18 13:00:29;;;;;;;12.57;3.23;;;21.40;99.90;;;;;;5052130;28;20465;-49
2022/08/18 13:02:58;;;;;;;4.87;2.47;;;21.40;99.90;;;;;;5052519;28;20457;-50
2022/08/18 13:05:25;;;;;;;8.37;2.77;;;21.20;99.90;;;;;;5052608;28;20446;-50
2022/08/18 13:07:52;;;;;;;7.30;2.20;;;20.90;99.90;;;;;;5052327;28;20434;-49
2022/08/18 13:10:21;;;;;;;4.57;2.77;;;21.00;99.90;;;;;;5052193;28;20645;-49
2022/08/18 13:12:47;;;;;;;7.00;3.30;;;21.00;99.90;;;;;;5052483;28;20884;-48
2022/08/18 13:15:14;;;;;;;62.67;8.63;;;21.10;99.90;;;;;;5051933;28;20781;-50
2022/08/18 13:17:42;;;;;;;9.60;3.43;;;21.10;99.90;;;;;;5051647;28;20450;-49
2022/08/18 13:20:12;;;;;;;7.90;3.20;;;21.00;99.90;;;;;;5051861;28;20433;-49
2022/08/18 13:22:40;;;;;;;3.50;2.70;;;21.00;99.90;;;;;;5052010;28;21051;-49
2022/08/18 13:25:09;;;;;;;6.27;2.60;;;20.80;99.90;;;;;;5052105;28;20438;-49
2022/08/18 13:27:38;;;;;;;9.00;2.90;;;21.00;99.90;;;;;;5051785;28;20711;-50
2022/08/18 13:30:09;;;;;;;8.70;3.60;;;21.00;99.90;;;;;;5051133;28;20534;-49
2022/08/18 13:32:36;;;;;;;11.70;4.07;;;20.90;99.90;;;;;;5051802;28;20999;-50